AST,Max TemperatureF,Mean TemperatureF,Min TemperatureF,Max Dew PointF,MeanDew PointF,Min DewpointF,Max Humidity, Mean Humidity, Min Humidity, Max Sea Level PressureIn, Mean Sea Level PressureIn, Min Sea Level PressureIn, Max VisibilityMiles, Mean VisibilityMiles, Min VisibilityMiles, Max Wind SpeedMPH, Mean Wind SpeedMPH, Max Gust SpeedMPH,PrecipitationIn, CloudCover, Events, WindDirDegrees
2012-10-1,101,89,77,76,68,51,85,56,19,29.91,29.86,29.82,6,6,6,15,5,,0.00,0,,352
2012-10-2,102,90,77,78,66,50,88,53,19,29.91,29.86,29.81,6,6,6,12,6,17,0.00,0,,6
2012-10-3,103,90,76,78,68,47,82,55,15,29.87,29.82,29.77,6,6,6,14,8,28,0.00,0,,335
2012-10-4,102,88,75,81,71,42,100,72,12,29.82,29.79,29.71,6,4,0,17,4,,0.00,0,Fog,332
2012-10-5,102,88,74,75,68,44,94,60,13,29.84,29.79,29.75,6,6,2,12,4,,0.00,0,,40
2012-10-6,101,88,75,76,65,38,84,53,13,29.89,29.85,29.79,6,6,2,13,2,,0.00,0,,42
2012-10-7,103,88,74,74,68,39,84,55,11,29.94,29.88,29.84,6,6,5,13,3,,0.00,0,,65
2012-10-8,103,90,76,75,64,37,81,52,10,29.93,29.87,29.81,6,6,5,14,3,,0.00,0,,66
2012-10-9,102,88,73,78,66,42,86,58,14,29.90,29.84,29.79,6,6,5,13,3,,0.00,0,,101
2012-10-10,102,86,70,81,67,47,100,69,16,29.88,29.84,29.80,6,4,0,14,4,,0.00,0,Fog,167
2012-10-11,102,88,73,76,61,45,80,44,14,29.93,29.87,29.83,6,6,2,14,5,21,0.00,0,,94
2012-10-12,102,88,73,74,53,30,80,41,8,29.94,29.87,29.83,6,6,6,12,4,,0.00,0,,244
2012-10-13,103,87,71,64,48,29,59,31,7,29.89,29.85,29.81,6,6,6,16,8,,0.00,0,,295
2012-10-14,99,87,75,76,66,56,90,55,27,29.92,29.88,29.84,6,6,6,21,9,,0.00,0,,305
2012-10-15,96,84,72,68,61,51,86,49,22,29.96,29.91,29.88,6,6,6,20,10,28,0.00,0,,309
2012-10-16,98,86,73,73,64,44,81,53,15,29.98,29.93,29.87,6,6,6,13,6,,0.00,0,,307
2012-10-17,96,84,72,73,67,56,82,57,26,29.98,29.92,29.88,6,6,6,9,4,,0.00,0,,325
2012-10-18,97,84,72,74,67,55,81,57,24,29.96,29.91,29.86,6,6,6,14,4,,0.00,0,,97
2012-10-19,93,86,78,76,73,70,77,67,51,29.99,29.94,29.90,6,6,6,10,6,,0.00,0,,106
2012-10-20,94,85,76,76,68,54,81,59,27,29.99,29.95,29.91,6,6,6,14,6,,0.00,0,,116
2012-10-21,95,86,77,74,69,52,81,59,23,30.02,29.96,29.92,6,6,6,13,6,20,0.00,0,,106
2012-10-22,95,84,73,74,70,62,80,61,33,30.04,29.97,29.92,6,6,6,9,5,,0.00,1,,67
2012-10-23,95,86,77,73,69,63,78,60,34,30.01,29.96,29.92,6,6,6,10,4,17,0.00,1,,73
2012-10-24,95,84,72,76,71,67,85,67,40,30.01,29.95,29.90,6,6,5,14,5,,0.00,0,,84
2012-10-25,96,84,73,74,69,52,84,63,23,29.99,29.92,29.85,6,6,5,12,4,,0.00,0,,91
2012-10-26,97,84,72,74,67,54,81,59,23,29.94,29.88,29.83,6,6,6,14,3,,0.00,0,,136
2012-10-27,97,84,72,73,65,51,84,57,21,29.91,29.86,29.82,6,6,5,14,6,,0.00,0,,146
2012-10-28,98,86,73,76,67,47,81,59,17,29.96,29.90,29.84,6,6,6,17,7,23,0.00,0,,109
2012-10-29,88,81,74,75,68,63,85,64,44,29.98,29.91,29.87,6,6,5,15,7,20,0.00,1,,4
2012-10-30,90,82,74,68,61,53,72,49,35,30.00,29.95,29.90,6,6,6,16,10,17,0.00,0,,338
2012-10-31,89,80,70,59,56,53,64,46,29,30.01,29.96,29.92,6,6,6,21,9,26,0.00,0,,324